This is the latest recevied weather packets stored in our database for station/object K2CAT. If no packets are shown the sender has not sent any weather packets the latest 10 day(s).
| Time | Temp. | Humidity | Pressure | Rain* | Wind** | Luminosity | Snow |
|---|---|---|---|---|---|---|---|
| 1777001047 | 13.89° C | 53% | 1010.8 hPa | 0 mm | - | 0 W/m² | - |
| 1777000743 | 14.44° C | 52% | 1010.9 hPa | 0 mm | - | 0 W/m² | - |
| 1777000440 | 14.44° C | 51% | 1010.8 hPa | 0 mm | - | 0 W/m² | - |
| 1777000136 | 14.44° C | 52% | 1010.8 hPa | 0 mm | - | 0 W/m² | - |
| 1776999831 | 14.44° C | 49% | 1010.9 hPa | 0 mm | - | 0 W/m² | - |
| 1776999528 | 15° C | 49% | 1011.1 hPa | 0 mm | - | 0 W/m² | - |
| 1776999224 | 15° C | 48% | 1010.7 hPa | 0 mm | - | 0 W/m² | - |
| 1776998921 | 15° C | 46% | 1010.9 hPa | 0 mm | - | 0 W/m² | - |
| 1776998619 | 15° C | 47% | 1011.1 hPa | 0 mm | - | 0 W/m² | - |
| 1776998314 | 15.56° C | 44% | 1011 hPa | 0 mm | - | 0 W/m² | - |
| 1776998010 | 15.56° C | 45% | 1011.1 hPa | 0 mm | - | 0 W/m² | - |
| 1776997711 | 16.11° C | 43% | 1011.3 hPa | 0 mm | - | 0 W/m² | - |
| 1776997407 | 16.67° C | 37% | 1011.2 hPa | 0 mm | - | 0 W/m² | - |
| 1776997103 | 16.11° C | 39% | 1011.2 hPa | 0 mm | - | 0 W/m² | - |
| 1776996800 | 16.11° C | 41% | 1011.2 hPa | 0 mm | - | 0 W/m² | - |
| 1776996495 | 16.11° C | 42% | 1011.3 hPa | 0 mm | - | 0 W/m² | - |
| 1776996192 | 16.11° C | 44% | 1011.4 hPa | 0 mm | - | 0 W/m² | - |
| 1776995889 | 16.67° C | 38% | 1011.3 hPa | 0 mm | - | 0 W/m² | - |
| 1776995585 | 16.67° C | 41% | 1011.5 hPa | 0 mm | - | 0 W/m² | - |
| 1776995279 | 16.67° C | 37% | 1011.2 hPa | 0 mm | - | 0 W/m² | - |
| 1776994977 | 16.67° C | 40% | 1011.7 hPa | 0 mm | - | 0 W/m² | - |
| 1776994676 | 16.67° C | 40% | 1011.4 hPa | 0 mm | - | 0 W/m² | - |
| 1776994373 | 16.67° C | 40% | 1011.4 hPa | 0 mm | - | 0 W/m² | - |
| 1776994069 | 17.22° C | 37% | 1011.4 hPa | 0 mm | - | 0 W/m² | - |
| 1776993767 | 17.78° C | 35% | 1011.3 hPa | 0 mm | - | 0 W/m² | - |
* Rain latest hour (hover to see other rain measurements)
** Current wind speed in m/s (hover to see current wind gust speed)